createdAt,value
2023-03-18T00:00:28.626Z,11.73
2023-03-18T00:02:55.608Z,12.57
2023-03-18T00:05:22.710Z,11.30
2023-03-18T00:07:50.459Z,11.37
2023-03-18T00:10:18.127Z,15.00
2023-03-18T00:12:45.270Z,14.47
2023-03-18T00:15:14.440Z,10.53
2023-03-18T00:17:42.483Z,9.67
2023-03-18T00:20:13.180Z,15.67
2023-03-18T00:22:41.745Z,16.73
2023-03-18T00:25:11.142Z,15.50
2023-03-18T00:27:39.745Z,12.93
2023-03-18T00:30:08.329Z,11.77
2023-03-18T00:32:36.490Z,11.07
2023-03-18T00:35:04.007Z,10.47
2023-03-18T00:37:31.721Z,9.77
2023-03-18T00:40:06.715Z,9.80
2023-03-18T00:42:40.290Z,9.27
2023-03-18T00:45:11.394Z,8.90
2023-03-18T00:47:38.705Z,8.33
2023-03-18T00:50:08.945Z,8.40
2023-03-18T00:52:36.289Z,8.03
2023-03-18T00:55:03.867Z,7.67
2023-03-18T00:57:30.783Z,7.67
2023-03-18T00:59:59.502Z,7.87
2023-03-18T01:02:27.631Z,8.00
2023-03-18T01:04:54.983Z,7.33
2023-03-18T01:07:22.053Z,7.87
2023-03-18T01:09:49.501Z,7.87
2023-03-18T01:12:16.826Z,7.43
2023-03-18T01:14:44.310Z,7.10
2023-03-18T01:17:11.576Z,6.17
2023-03-18T01:19:39.049Z,7.30
2023-03-18T01:22:06.661Z,7.53
2023-03-18T01:24:34.176Z,7.10
2023-03-18T01:27:02.113Z,7.53
2023-03-18T01:29:30.021Z,6.90
2023-03-18T01:31:57.250Z,6.93
2023-03-18T01:34:25.226Z,7.40
2023-03-18T01:36:52.237Z,6.80
2023-03-18T01:39:19.335Z,8.70
2023-03-18T01:41:47.723Z,10.93
2023-03-18T01:44:22.828Z,9.63
2023-03-18T01:46:51.092Z,12.03
2023-03-18T01:49:20.708Z,9.87
2023-03-18T01:51:54.476Z,9.60
2023-03-18T01:54:22.737Z,9.20
2023-03-18T01:56:51.776Z,11.03
2023-03-18T01:59:21.678Z,10.23
2023-03-18T02:01:55.262Z,9.50
2023-03-18T02:04:26.862Z,8.50
2023-03-18T02:06:53.780Z,7.13
2023-03-18T02:09:21.949Z,7.00
2023-03-18T02:11:50.150Z,6.90
2023-03-18T02:14:21.268Z,7.63
2023-03-18T02:17:10.556Z,7.40
2023-03-18T02:19:45.895Z,6.80
2023-03-18T02:22:16.331Z,7.60
2023-03-18T02:25:11.177Z,7.40
2023-03-18T02:27:41.997Z,7.80
2023-03-18T02:30:17.627Z,8.17
2023-03-18T02:32:46.985Z,8.20
2023-03-18T02:35:14.110Z,7.60
2023-03-18T02:37:41.077Z,7.53
2023-03-18T02:40:26.212Z,7.37
2023-03-18T02:42:53.475Z,7.27
2023-03-18T02:45:57.300Z,7.03
2023-03-18T02:48:30.662Z,7.10
2023-03-18T02:50:57.692Z,7.13
2023-03-18T02:53:24.633Z,7.50
2023-03-18T02:55:51.488Z,6.57
2023-03-18T02:58:18.984Z,6.70
2023-03-18T03:00:45.990Z,7.30
2023-03-18T03:03:12.938Z,7.03
2023-03-18T03:05:39.898Z,7.73
2023-03-18T03:08:07.528Z,7.67
2023-03-18T03:10:34.470Z,8.00
2023-03-18T03:13:01.754Z,7.27
2023-03-18T03:15:28.964Z,7.60
2023-03-18T03:17:56.384Z,7.33
2023-03-18T03:20:23.885Z,7.93
2023-03-18T03:22:51.415Z,6.97
2023-03-18T03:25:18.524Z,7.97
2023-03-18T03:27:45.466Z,7.03
2023-03-18T03:30:13.690Z,6.60
2023-03-18T03:32:41.588Z,7.53
2023-03-18T03:35:09.416Z,7.03
2023-03-18T03:37:36.286Z,6.97
2023-03-18T03:40:06.252Z,6.97
2023-03-18T03:42:33.115Z,7.13
2023-03-18T03:45:00.196Z,7.40
2023-03-18T03:47:27.059Z,7.50
2023-03-18T03:49:53.989Z,7.00
2023-03-18T03:52:21.051Z,7.37
2023-03-18T03:54:48.521Z,7.87
2023-03-18T03:57:15.529Z,7.73
2023-03-18T03:59:43.083Z,7.57
2023-03-18T04:02:09.984Z,8.53
2023-03-18T04:04:37.509Z,8.83
2023-03-18T04:07:04.463Z,8.47
2023-03-18T04:09:31.240Z,8.23
2023-03-18T04:11:58.052Z,8.37
2023-03-18T04:14:24.969Z,8.10
2023-03-18T04:16:51.871Z,8.10
2023-03-18T04:19:19.075Z,9.27
2023-03-18T04:21:46.248Z,8.40
2023-03-18T04:24:13.061Z,7.67
2023-03-18T04:26:39.870Z,7.80
2023-03-18T04:29:07.058Z,7.43
2023-03-18T04:31:33.925Z,8.17
2023-03-18T04:34:00.885Z,8.17
2023-03-18T04:36:28.533Z,7.73
2023-03-18T04:38:57.065Z,8.00
2023-03-18T04:41:24.207Z,7.23
2023-03-18T04:43:50.995Z,8.90
2023-03-18T04:46:18.003Z,7.87
2023-03-18T04:48:44.880Z,10.10
2023-03-18T04:51:12.612Z,9.70
2023-03-18T04:53:40.133Z,9.47
2023-03-18T04:56:07.313Z,9.30
2023-03-18T04:58:34.671Z,8.20
2023-03-18T05:01:02.275Z,8.17
2023-03-18T05:03:29.194Z,7.97
2023-03-18T05:05:56.310Z,7.40
2023-03-18T05:08:23.599Z,8.77
2023-03-18T05:10:51.084Z,9.20
2023-03-18T05:13:18.578Z,9.07
2023-03-18T05:15:45.571Z,9.83
2023-03-18T05:18:12.809Z,11.17
2023-03-18T05:20:39.944Z,11.93
2023-03-18T05:23:06.800Z,12.80
2023-03-18T05:25:34.039Z,13.20
2023-03-18T05:28:01.626Z,15.30
2023-03-18T05:30:28.616Z,14.57
2023-03-18T05:32:55.842Z,13.47
2023-03-18T05:35:22.787Z,11.37
2023-03-18T05:37:49.697Z,11.47
2023-03-18T05:40:16.914Z,11.90
2023-03-18T05:42:55.383Z,12.63
2023-03-18T05:45:23.097Z,14.27
2023-03-18T05:47:50.293Z,13.07
2023-03-18T05:50:39.688Z,10.10
2023-03-18T05:53:06.997Z,11.27
2023-03-18T05:55:34.617Z,16.67
2023-03-18T05:58:03.124Z,10.83
2023-03-18T06:00:31.278Z,9.83
2023-03-18T06:02:59.706Z,10.57
2023-03-18T06:05:27.171Z,9.60
2023-03-18T06:07:54.920Z,9.13
2023-03-18T06:10:23.460Z,8.40
2023-03-18T06:12:51.434Z,8.53
2023-03-18T06:15:21.493Z,9.37
2023-03-18T06:17:48.863Z,9.37
2023-03-18T06:20:18.776Z,8.23
2023-03-18T06:22:49.789Z,8.43
2023-03-18T06:25:19.341Z,7.83
2023-03-18T06:27:48.099Z,8.10
2023-03-18T06:30:17.014Z,8.07
2023-03-18T06:32:45.059Z,8.13
2023-03-18T06:35:12.799Z,8.97
2023-03-18T06:37:40.252Z,9.37
2023-03-18T06:40:08.717Z,10.90
2023-03-18T06:42:35.724Z,8.93
2023-03-18T06:45:03.623Z,8.47
2023-03-18T06:47:30.754Z,9.67
2023-03-18T06:49:57.842Z,9.23
2023-03-18T06:52:24.852Z,9.17
2023-03-18T06:54:52.251Z,10.60
2023-03-18T06:57:20.470Z,10.23
2023-03-18T06:59:48.211Z,10.30
2023-03-18T07:02:15.714Z,10.40
2023-03-18T07:04:42.819Z,9.10
2023-03-18T07:07:10.079Z,10.43
2023-03-18T07:09:37.562Z,10.33
2023-03-18T07:12:06.523Z,8.60
2023-03-18T07:14:33.574Z,8.40
2023-03-18T07:17:00.816Z,8.40
2023-03-18T07:19:28.893Z,8.87
2023-03-18T07:21:57.194Z,8.70
2023-03-18T07:24:24.170Z,8.33
2023-03-18T07:26:51.749Z,8.50
2023-03-18T07:29:19.728Z,9.17
2023-03-18T07:31:47.144Z,7.20
2023-03-18T07:34:15.182Z,6.97
2023-03-18T07:36:42.820Z,10.27
2023-03-18T07:39:10.396Z,7.50
2023-03-18T07:41:38.180Z,7.90
2023-03-18T07:44:07.802Z,7.50
2023-03-18T07:46:34.743Z,8.43
2023-03-18T07:49:02.086Z,8.37
2023-03-18T07:51:29.052Z,8.43
2023-03-18T07:53:56.637Z,9.43
2023-03-18T07:56:24.360Z,10.20
2023-03-18T07:58:51.828Z,8.80
2023-03-18T08:01:19.615Z,10.30
2023-03-18T08:03:47.724Z,8.90
2023-03-18T08:06:15.911Z,11.57
2023-03-18T08:08:43.793Z,11.30
2023-03-18T08:11:11.009Z,12.00
2023-03-18T08:13:39.635Z,9.50
2023-03-18T08:16:07.487Z,9.27
2023-03-18T08:18:34.918Z,8.63
2023-03-18T08:21:01.930Z,9.33
2023-03-18T08:23:29.326Z,8.97
2023-03-18T08:25:56.761Z,9.80
2023-03-18T08:28:24.025Z,10.53
2023-03-18T08:30:55.982Z,11.10
2023-03-18T08:33:36.303Z,9.43
2023-03-18T08:36:03.608Z,10.77
2023-03-18T08:38:30.478Z,9.15
2023-03-18T08:40:57.987Z,6.93
2023-03-18T08:43:25.163Z,8.27
2023-03-18T08:45:55.222Z,7.25
2023-03-18T08:48:23.749Z,8.13
2023-03-18T08:50:50.760Z,7.38
2023-03-18T08:53:18.541Z,9.05
2023-03-18T08:55:46.618Z,8.25
2023-03-18T08:58:13.435Z,7.57
2023-03-18T09:00:41.870Z,7.80
2023-03-18T09:03:10.202Z,5.97
2023-03-18T09:05:37.831Z,6.07
2023-03-18T09:08:05.325Z,7.20
2023-03-18T09:10:32.406Z,5.68
2023-03-18T09:13:01.084Z,6.43
2023-03-18T09:15:28.396Z,6.57
2023-03-18T09:18:10.380Z,7.57
2023-03-18T09:20:39.069Z,8.32
2023-03-18T09:23:06.819Z,9.02
2023-03-18T09:25:34.446Z,14.73
2023-03-18T09:28:01.652Z,11.93
